sensor_id;sensor_type;location;lat;lon;timestamp;P1;durP1;ratioP1;P2;durP2;ratioP2
71639;SDS011;60912;48.968;10.124;2022-07-29T00:00:58;8.13;;;3.80;;
71639;SDS011;60912;48.968;10.124;2022-07-29T00:03:24;6.68;;;3.60;;
71639;SDS011;60912;48.968;10.124;2022-07-29T00:05:49;4.93;;;3.30;;
71639;SDS011;60912;48.968;10.124;2022-07-29T00:08:16;6.00;;;3.30;;
71639;SDS011;60912;48.968;10.124;2022-07-29T00:10:42;5.90;;;3.20;;
71639;SDS011;60912;48.968;10.124;2022-07-29T00:13:08;8.73;;;3.15;;
71639;SDS011;60912;48.968;10.124;2022-07-29T00:15:33;8.37;;;3.43;;
71639;SDS011;60912;48.968;10.124;2022-07-29T00:17:59;5.97;;;3.27;;
71639;SDS011;60912;48.968;10.124;2022-07-29T00:20:24;7.30;;;3.80;;
71639;SDS011;60912;48.968;10.124;2022-07-29T00:22:50;6.80;;;3.30;;
71639;SDS011;60912;48.968;10.124;2022-07-29T00:25:15;7.73;;;3.60;;
71639;SDS011;60912;48.968;10.124;2022-07-29T00:27:42;6.53;;;3.70;;
71639;SDS011;60912;48.968;10.124;2022-07-29T00:30:07;7.67;;;3.63;;
71639;SDS011;60912;48.968;10.124;2022-07-29T00:32:33;7.78;;;3.58;;
71639;SDS011;60912;48.968;10.124;2022-07-29T00:34:58;6.97;;;3.30;;
71639;SDS011;60912;48.968;10.124;2022-07-29T00:37:42;7.03;;;3.60;;
71639;SDS011;60912;48.968;10.124;2022-07-29T00:40:08;7.57;;;3.70;;
71639;SDS011;60912;48.968;10.124;2022-07-29T00:42:47;6.35;;;3.67;;
71639;SDS011;60912;48.968;10.124;2022-07-29T00:45:14;6.53;;;3.65;;
71639;SDS011;60912;48.968;10.124;2022-07-29T00:47:40;6.45;;;3.50;;
71639;SDS011;60912;48.968;10.124;2022-07-29T00:50:06;5.97;;;3.40;;
71639;SDS011;60912;48.968;10.124;2022-07-29T00:52:33;5.78;;;3.60;;
71639;SDS011;60912;48.968;10.124;2022-07-29T00:55:02;7.25;;;3.85;;
71639;SDS011;60912;48.968;10.124;2022-07-29T00:57:29;7.07;;;3.90;;
71639;SDS011;60912;48.968;10.124;2022-07-29T00:59:54;6.97;;;3.70;;
71639;SDS011;60912;48.968;10.124;2022-07-29T01:02:20;5.20;;;3.50;;
71639;SDS011;60912;48.968;10.124;2022-07-29T01:04:46;6.10;;;3.70;;
71639;SDS011;60912;48.968;10.124;2022-07-29T01:07:11;6.40;;;3.67;;
71639;SDS011;60912;48.968;10.124;2022-07-29T01:09:37;8.95;;;4.18;;
71639;SDS011;60912;48.968;10.124;2022-07-29T01:12:03;6.97;;;4.10;;
71639;SDS011;60912;48.968;10.124;2022-07-29T01:14:29;5.75;;;3.60;;
71639;SDS011;60912;48.968;10.124;2022-07-29T01:16:59;5.78;;;4.10;;
71639;SDS011;60912;48.968;10.124;2022-07-29T01:22:09;6.18;;;4.07;;
71639;SDS011;60912;48.968;10.124;2022-07-29T01:24:54;7.47;;;4.07;;
71639;SDS011;60912;48.968;10.124;2022-07-29T01:30:34;7.20;;;4.00;;
71639;SDS011;60912;48.968;10.124;2022-07-29T01:33:03;6.07;;;3.72;;
71639;SDS011;60912;48.968;10.124;2022-07-29T01:35:40;6.38;;;4.05;;
71639;SDS011;60912;48.968;10.124;2022-07-29T01:38:15;8.40;;;4.17;;
71639;SDS011;60912;48.968;10.124;2022-07-29T01:40:52;6.57;;;3.90;;
71639;SDS011;60912;48.968;10.124;2022-07-29T01:43:21;7.63;;;4.25;;
71639;SDS011;60912;48.968;10.124;2022-07-29T01:46:02;6.22;;;4.18;;
71639;SDS011;60912;48.968;10.124;2022-07-29T01:48:37;6.95;;;3.90;;
71639;SDS011;60912;48.968;10.124;2022-07-29T01:53:57;5.88;;;4.07;;
71639;SDS011;60912;48.968;10.124;2022-07-29T01:56:42;6.32;;;4.20;;
71639;SDS011;60912;48.968;10.124;2022-07-29T01:59:09;7.72;;;4.13;;
71639;SDS011;60912;48.968;10.124;2022-07-29T02:01:35;5.53;;;4.13;;
71639;SDS011;60912;48.968;10.124;2022-07-29T02:04:05;7.70;;;4.60;;
71639;SDS011;60912;48.968;10.124;2022-07-29T02:06:33;7.43;;;4.28;;
71639;SDS011;60912;48.968;10.124;2022-07-29T02:09:00;7.55;;;4.25;;
71639;SDS011;60912;48.968;10.124;2022-07-29T02:11:28;6.57;;;4.13;;
71639;SDS011;60912;48.968;10.124;2022-07-29T02:13:56;7.75;;;3.85;;
71639;SDS011;60912;48.968;10.124;2022-07-29T02:16:23;6.17;;;4.03;;
71639;SDS011;60912;48.968;10.124;2022-07-29T02:18:52;5.47;;;4.10;;
71639;SDS011;60912;48.968;10.124;2022-07-29T02:21:21;7.15;;;4.07;;
71639;SDS011;60912;48.968;10.124;2022-07-29T02:23:50;6.85;;;4.00;;
71639;SDS011;60912;48.968;10.124;2022-07-29T02:26:19;7.75;;;4.10;;
71639;SDS011;60912;48.968;10.124;2022-07-29T02:28:47;8.90;;;4.60;;
71639;SDS011;60912;48.968;10.124;2022-07-29T02:31:14;6.22;;;4.22;;
71639;SDS011;60912;48.968;10.124;2022-07-29T02:33:43;5.68;;;3.90;;
71639;SDS011;60912;48.968;10.124;2022-07-29T02:36:11;6.93;;;3.85;;
71639;SDS011;60912;48.968;10.124;2022-07-29T02:38:37;7.53;;;4.07;;
71639;SDS011;60912;48.968;10.124;2022-07-29T02:41:28;6.45;;;4.00;;
71639;SDS011;60912;48.968;10.124;2022-07-29T02:43:57;6.63;;;4.25;;
71639;SDS011;60912;48.968;10.124;2022-07-29T02:46:35;7.60;;;4.30;;
71639;SDS011;60912;48.968;10.124;2022-07-29T02:49:05;5.68;;;3.55;;
71639;SDS011;60912;48.968;10.124;2022-07-29T02:51:40;5.43;;;3.93;;
71639;SDS011;60912;48.968;10.124;2022-07-29T02:54:08;6.50;;;4.03;;
71639;SDS011;60912;48.968;10.124;2022-07-29T02:56:36;6.05;;;4.00;;
71639;SDS011;60912;48.968;10.124;2022-07-29T02:59:06;6.82;;;4.30;;
71639;SDS011;60912;48.968;10.124;2022-07-29T03:01:35;7.15;;;4.35;;
71639;SDS011;60912;48.968;10.124;2022-07-29T03:04:05;6.57;;;4.73;;
71639;SDS011;60912;48.968;10.124;2022-07-29T03:06:31;6.30;;;4.20;;
71639;SDS011;60912;48.968;10.124;2022-07-29T03:08:59;11.07;;;4.47;;
71639;SDS011;60912;48.968;10.124;2022-07-29T03:11:26;7.53;;;4.50;;
71639;SDS011;60912;48.968;10.124;2022-07-29T03:13:52;8.63;;;4.40;;
71639;SDS011;60912;48.968;10.124;2022-07-29T03:16:19;7.05;;;4.30;;
71639;SDS011;60912;48.968;10.124;2022-07-29T03:18:47;7.22;;;4.13;;
71639;SDS011;60912;48.968;10.124;2022-07-29T03:21:12;7.07;;;4.63;;
71639;SDS011;60912;48.968;10.124;2022-07-29T03:23:39;6.57;;;4.20;;
71639;SDS011;60912;48.968;10.124;2022-07-29T03:26:08;7.53;;;4.60;;
71639;SDS011;60912;48.968;10.124;2022-07-29T03:28:34;9.23;;;4.50;;
71639;SDS011;60912;48.968;10.124;2022-07-29T03:31:00;8.23;;;4.57;;
71639;SDS011;60912;48.968;10.124;2022-07-29T03:33:25;6.83;;;4.30;;
71639;SDS011;60912;48.968;10.124;2022-07-29T03:35:51;7.33;;;4.70;;
71639;SDS011;60912;48.968;10.124;2022-07-29T03:38:16;6.17;;;4.40;;
71639;SDS011;60912;48.968;10.124;2022-07-29T03:40:46;8.00;;;4.50;;
71639;SDS011;60912;48.968;10.124;2022-07-29T03:43:13;8.10;;;4.47;;
71639;SDS011;60912;48.968;10.124;2022-07-29T03:45:42;7.82;;;4.97;;
71639;SDS011;60912;48.968;10.124;2022-07-29T03:48:12;6.75;;;4.63;;
71639;SDS011;60912;48.968;10.124;2022-07-29T03:50:41;6.90;;;5.18;;
71639;SDS011;60912;48.968;10.124;2022-07-29T03:53:06;7.27;;;4.87;;
71639;SDS011;60912;48.968;10.124;2022-07-29T03:55:33;7.38;;;5.13;;
71639;SDS011;60912;48.968;10.124;2022-07-29T03:58:05;9.35;;;5.03;;
71639;SDS011;60912;48.968;10.124;2022-07-29T04:00:33;7.00;;;5.00;;
71639;SDS011;60912;48.968;10.124;2022-07-29T04:03:00;9.65;;;4.53;;
71639;SDS011;60912;48.968;10.124;2022-07-29T04:05:26;7.47;;;4.95;;
71639;SDS011;60912;48.968;10.124;2022-07-29T04:07:51;7.27;;;5.20;;
71639;SDS011;60912;48.968;10.124;2022-07-29T04:10:17;8.20;;;5.10;;
71639;SDS011;60912;48.968;10.124;2022-07-29T04:15:11;7.72;;;5.18;;
71639;SDS011;60912;48.968;10.124;2022-07-29T04:17:37;7.80;;;5.13;;
71639;SDS011;60912;48.968;10.124;2022-07-29T04:20:03;7.07;;;5.18;;
71639;SDS011;60912;48.968;10.124;2022-07-29T04:22:29;10.50;;;4.72;;
71639;SDS011;60912;48.968;10.124;2022-07-29T04:24:54;7.57;;;5.20;;
71639;SDS011;60912;48.968;10.124;2022-07-29T04:27:20;8.17;;;4.47;;
71639;SDS011;60912;48.968;10.124;2022-07-29T04:29:45;7.60;;;4.53;;
71639;SDS011;60912;48.968;10.124;2022-07-29T04:32:10;8.27;;;4.40;;
71639;SDS011;60912;48.968;10.124;2022-07-29T04:34:36;8.87;;;4.33;;
71639;SDS011;60912;48.968;10.124;2022-07-29T04:37:01;5.57;;;3.70;;
71639;SDS011;60912;48.968;10.124;2022-07-29T04:39:27;6.18;;;3.80;;
71639;SDS011;60912;48.968;10.124;2022-07-29T04:41:52;6.50;;;3.73;;
71639;SDS011;60912;48.968;10.124;2022-07-29T04:44:18;7.50;;;3.70;;
71639;SDS011;60912;48.968;10.124;2022-07-29T04:46:43;6.30;;;4.10;;
71639;SDS011;60912;48.968;10.124;2022-07-29T04:49:09;10.15;;;4.20;;
71639;SDS011;60912;48.968;10.124;2022-07-29T04:51:34;6.33;;;3.70;;
71639;SDS011;60912;48.968;10.124;2022-07-29T04:54:00;6.57;;;3.50;;
71639;SDS011;60912;48.968;10.124;2022-07-29T04:56:26;8.67;;;4.13;;
71639;SDS011;60912;48.968;10.124;2022-07-29T04:58:51;5.95;;;3.58;;
71639;SDS011;60912;48.968;10.124;2022-07-29T05:01:17;6.80;;;4.57;;
71639;SDS011;60912;48.968;10.124;2022-07-29T05:03:43;7.00;;;4.40;;
71639;SDS011;60912;48.968;10.124;2022-07-29T05:06:10;9.75;;;4.63;;
71639;SDS011;60912;48.968;10.124;2022-07-29T05:08:35;6.67;;;4.63;;
71639;SDS011;60912;48.968;10.124;2022-07-29T05:11:01;6.13;;;4.20;;
71639;SDS011;60912;48.968;10.124;2022-07-29T05:13:26;9.20;;;4.60;;
71639;SDS011;60912;48.968;10.124;2022-07-29T05:15:52;8.43;;;4.30;;
71639;SDS011;60912;48.968;10.124;2022-07-29T05:18:18;9.90;;;6.53;;
71639;SDS011;60912;48.968;10.124;2022-07-29T05:20:43;10.27;;;6.13;;
71639;SDS011;60912;48.968;10.124;2022-07-29T05:23:09;6.97;;;4.60;;
71639;SDS011;60912;48.968;10.124;2022-07-29T05:25:37;6.38;;;4.10;;
71639;SDS011;60912;48.968;10.124;2022-07-29T05:28:03;9.30;;;4.40;;
71639;SDS011;60912;48.968;10.124;2022-07-29T05:30:28;7.22;;;4.63;;
71639;SDS011;60912;48.968;10.124;2022-07-29T05:32:54;9.23;;;4.53;;
71639;SDS011;60912;48.968;10.124;2022-07-29T05:35:19;9.37;;;4.80;;
71639;SDS011;60912;48.968;10.124;2022-07-29T05:37:45;7.87;;;4.50;;
71639;SDS011;60912;48.968;10.124;2022-07-29T05:40:11;11.18;;;4.40;;
71639;SDS011;60912;48.968;10.124;2022-07-29T05:42:37;10.77;;;4.90;;
71639;SDS011;60912;48.968;10.124;2022-07-29T05:45:02;6.38;;;4.40;;
71639;SDS011;60912;48.968;10.124;2022-07-29T05:47:28;7.10;;;4.70;;
71639;SDS011;60912;48.968;10.124;2022-07-29T05:49:54;7.32;;;4.43;;
71639;SDS011;60912;48.968;10.124;2022-07-29T05:52:19;7.63;;;4.30;;
71639;SDS011;60912;48.968;10.124;2022-07-29T05:54:45;5.88;;;3.97;;
71639;SDS011;60912;48.968;10.124;2022-07-29T05:57:15;6.60;;;3.80;;
71639;SDS011;60912;48.968;10.124;2022-07-29T05:59:41;5.90;;;4.10;;
71639;SDS011;60912;48.968;10.124;2022-07-29T06:02:07;7.00;;;3.87;;
71639;SDS011;60912;48.968;10.124;2022-07-29T06:04:32;7.75;;;3.35;;
71639;SDS011;60912;48.968;10.124;2022-07-29T06:06:58;6.60;;;5.00;;
71639;SDS011;60912;48.968;10.124;2022-07-29T06:09:24;7.88;;;4.00;;
71639;SDS011;60912;48.968;10.124;2022-07-29T06:11:49;6.80;;;3.77;;
71639;SDS011;60912;48.968;10.124;2022-07-29T06:14:14;6.53;;;3.47;;
71639;SDS011;60912;48.968;10.124;2022-07-29T06:16:40;7.43;;;3.90;;
71639;SDS011;60912;48.968;10.124;2022-07-29T06:19:05;6.30;;;3.50;;
71639;SDS011;60912;48.968;10.124;2022-07-29T06:21:31;6.43;;;3.17;;
71639;SDS011;60912;48.968;10.124;2022-07-29T06:23:57;7.30;;;3.60;;
71639;SDS011;60912;48.968;10.124;2022-07-29T06:26:22;6.33;;;3.10;;
71639;SDS011;60912;48.968;10.124;2022-07-29T06:28:48;5.10;;;2.80;;
71639;SDS011;60912;48.968;10.124;2022-07-29T06:31:13;5.00;;;3.10;;
71639;SDS011;60912;48.968;10.124;2022-07-29T06:33:39;3.97;;;2.70;;
71639;SDS011;60912;48.968;10.124;2022-07-29T06:36:04;7.70;;;3.07;;
71639;SDS011;60912;48.968;10.124;2022-07-29T06:38:30;6.35;;;2.80;;
71639;SDS011;60912;48.968;10.124;2022-07-29T06:40:56;4.20;;;2.90;;
71639;SDS011;60912;48.968;10.124;2022-07-29T06:43:25;7.70;;;2.77;;
71639;SDS011;60912;48.968;10.124;2022-07-29T06:45:51;5.68;;;2.80;;
71639;SDS011;60912;48.968;10.124;2022-07-29T06:48:17;5.70;;;2.90;;
71639;SDS011;60912;48.968;10.124;2022-07-29T06:50:42;6.27;;;3.23;;
71639;SDS011;60912;48.968;10.124;2022-07-29T06:53:07;5.10;;;2.67;;
71639;SDS011;60912;48.968;10.124;2022-07-29T06:55:33;7.47;;;3.07;;
71639;SDS011;60912;48.968;10.124;2022-07-29T06:57:58;5.53;;;2.60;;
71639;SDS011;60912;48.968;10.124;2022-07-29T07:00:24;7.40;;;2.77;;
71639;SDS011;60912;48.968;10.124;2022-07-29T07:02:50;6.83;;;2.57;;
71639;SDS011;60912;48.968;10.124;2022-07-29T07:05:15;5.57;;;2.60;;
71639;SDS011;60912;48.968;10.124;2022-07-29T07:07:40;6.60;;;2.80;;
71639;SDS011;60912;48.968;10.124;2022-07-29T07:10:06;3.80;;;2.60;;
71639;SDS011;60912;48.968;10.124;2022-07-29T07:12:32;4.78;;;2.67;;
71639;SDS011;60912;48.968;10.124;2022-07-29T07:14:57;5.53;;;2.43;;
71639;SDS011;60912;48.968;10.124;2022-07-29T07:17:22;5.77;;;2.63;;
71639;SDS011;60912;48.968;10.124;2022-07-29T07:19:49;4.22;;;2.45;;
71639;SDS011;60912;48.968;10.124;2022-07-29T07:22:14;3.40;;;2.30;;
71639;SDS011;60912;48.968;10.124;2022-07-29T07:24:39;4.30;;;2.57;;
71639;SDS011;60912;48.968;10.124;2022-07-29T07:27:05;4.25;;;2.55;;
71639;SDS011;60912;48.968;10.124;2022-07-29T07:29:30;4.23;;;2.90;;
71639;SDS011;60912;48.968;10.124;2022-07-29T07:31:57;6.80;;;2.40;;
71639;SDS011;60912;48.968;10.124;2022-07-29T07:34:22;4.80;;;2.20;;
71639;SDS011;60912;48.968;10.124;2022-07-29T07:36:48;3.97;;;2.20;;
71639;SDS011;60912;48.968;10.124;2022-07-29T07:39:13;5.60;;;2.40;;
71639;SDS011;60912;48.968;10.124;2022-07-29T07:41:38;3.75;;;2.10;;
71639;SDS011;60912;48.968;10.124;2022-07-29T07:44:04;5.57;;;2.50;;
71639;SDS011;60912;48.968;10.124;2022-07-29T07:46:30;4.40;;;2.20;;
71639;SDS011;60912;48.968;10.124;2022-07-29T07:48:55;4.35;;;2.20;;
71639;SDS011;60912;48.968;10.124;2022-07-29T07:51:20;4.00;;;2.13;;
71639;SDS011;60912;48.968;10.124;2022-07-29T07:53:46;7.13;;;2.10;;
71639;SDS011;60912;48.968;10.124;2022-07-29T07:56:14;3.83;;;1.92;;
71639;SDS011;60912;48.968;10.124;2022-07-29T07:58:40;4.38;;;2.15;;
71639;SDS011;60912;48.968;10.124;2022-07-29T08:01:05;3.57;;;1.70;;
71639;SDS011;60912;48.968;10.124;2022-07-29T08:03:31;4.03;;;2.07;;
71639;SDS011;60912;48.968;10.124;2022-07-29T08:05:57;6.05;;;1.98;;
71639;SDS011;60912;48.968;10.124;2022-07-29T08:08:23;6.83;;;2.20;;
71639;SDS011;60912;48.968;10.124;2022-07-29T08:10:48;4.03;;;2.08;;
71639;SDS011;60912;48.968;10.124;2022-07-29T08:13:17;5.07;;;2.00;;
71639;SDS011;60912;48.968;10.124;2022-07-29T08:15:42;4.45;;;1.95;;
71639;SDS011;60912;48.968;10.124;2022-07-29T08:18:09;6.70;;;2.83;;
71639;SDS011;60912;48.968;10.124;2022-07-29T08:20:36;4.40;;;2.30;;
71639;SDS011;60912;48.968;10.124;2022-07-29T08:23:03;4.20;;;1.90;;
71639;SDS011;60912;48.968;10.124;2022-07-29T08:25:31;3.38;;;2.13;;
71639;SDS011;60912;48.968;10.124;2022-07-29T08:27:56;3.67;;;2.10;;
71639;SDS011;60912;48.968;10.124;2022-07-29T08:30:22;6.37;;;2.10;;
71639;SDS011;60912;48.968;10.124;2022-07-29T08:32:48;5.37;;;2.10;;
71639;SDS011;60912;48.968;10.124;2022-07-29T08:35:15;3.78;;;1.90;;
71639;SDS011;60912;48.968;10.124;2022-07-29T08:37:40;5.03;;;2.00;;
71639;SDS011;60912;48.968;10.124;2022-07-29T08:40:06;3.83;;;2.03;;
71639;SDS011;60912;48.968;10.124;2022-07-29T08:42:32;5.95;;;2.60;;
71639;SDS011;60912;48.968;10.124;2022-07-29T08:44:58;3.30;;;2.20;;
71639;SDS011;60912;48.968;10.124;2022-07-29T08:47:23;6.10;;;2.30;;
71639;SDS011;60912;48.968;10.124;2022-07-29T08:49:51;4.18;;;2.30;;
71639;SDS011;60912;48.968;10.124;2022-07-29T08:52:16;4.50;;;2.13;;
71639;SDS011;60912;48.968;10.124;2022-07-29T08:54:43;3.50;;;1.90;;
71639;SDS011;60912;48.968;10.124;2022-07-29T08:57:09;3.85;;;1.90;;
71639;SDS011;60912;48.968;10.124;2022-07-29T08:59:37;4.57;;;2.22;;
71639;SDS011;60912;48.968;10.124;2022-07-29T09:02:11;3.53;;;1.80;;
71639;SDS011;60912;48.968;10.124;2022-07-29T09:04:48;3.47;;;2.03;;
71639;SDS011;60912;48.968;10.124;2022-07-29T09:07:17;4.57;;;2.40;;
71639;SDS011;60912;48.968;10.124;2022-07-29T09:09:44;4.65;;;2.40;;
71639;SDS011;60912;48.968;10.124;2022-07-29T09:12:10;4.45;;;2.35;;
71639;SDS011;60912;48.968;10.124;2022-07-29T09:14:39;5.75;;;2.40;;
71639;SDS011;60912;48.968;10.124;2022-07-29T09:17:05;5.43;;;2.10;;
71639;SDS011;60912;48.968;10.124;2022-07-29T09:19:33;5.35;;;2.30;;
71639;SDS011;60912;48.968;10.124;2022-07-29T09:22:00;5.78;;;2.17;;
71639;SDS011;60912;48.968;10.124;2022-07-29T09:29:57;3.70;;;2.37;;
71639;SDS011;60912;48.968;10.124;2022-07-29T09:32:57;3.40;;;2.15;;
71639;SDS011;60912;48.968;10.124;2022-07-29T09:35:23;3.80;;;2.20;;
71639;SDS011;60912;48.968;10.124;2022-07-29T09:37:50;4.00;;;2.10;;
71639;SDS011;60912;48.968;10.124;2022-07-29T09:40:17;3.78;;;2.15;;
71639;SDS011;60912;48.968;10.124;2022-07-29T09:42:53;6.27;;;2.20;;
71639;SDS011;60912;48.968;10.124;2022-07-29T09:45:31;3.55;;;2.22;;
71639;SDS011;60912;48.968;10.124;2022-07-29T09:47:58;4.50;;;2.25;;
71639;SDS011;60912;48.968;10.124;2022-07-29T09:50:38;5.70;;;2.42;;
71639;SDS011;60912;48.968;10.124;2022-07-29T09:53:04;4.20;;;2.50;;
71639;SDS011;60912;48.968;10.124;2022-07-29T09:55:30;4.07;;;2.30;;
71639;SDS011;60912;48.968;10.124;2022-07-29T09:58:14;4.17;;;2.40;;
71639;SDS011;60912;48.968;10.124;2022-07-29T10:00:42;3.97;;;2.63;;
71639;SDS011;60912;48.968;10.124;2022-07-29T10:03:07;4.50;;;2.57;;
71639;SDS011;60912;48.968;10.124;2022-07-29T10:05:33;4.88;;;2.80;;
71639;SDS011;60912;48.968;10.124;2022-07-29T10:07:58;6.17;;;2.40;;
71639;SDS011;60912;48.968;10.124;2022-07-29T10:10:25;7.50;;;2.30;;
71639;SDS011;60912;48.968;10.124;2022-07-29T10:12:55;4.65;;;2.65;;
71639;SDS011;60912;48.968;10.124;2022-07-29T10:15:27;3.55;;;2.45;;
71639;SDS011;60912;48.968;10.124;2022-07-29T10:17:56;4.35;;;2.40;;
71639;SDS011;60912;48.968;10.124;2022-07-29T10:20:23;4.47;;;2.43;;
71639;SDS011;60912;48.968;10.124;2022-07-29T10:22:49;4.07;;;2.30;;
71639;SDS011;60912;48.968;10.124;2022-07-29T10:25:16;4.53;;;2.60;;
71639;SDS011;60912;48.968;10.124;2022-07-29T10:27:42;5.45;;;2.67;;
71639;SDS011;60912;48.968;10.124;2022-07-29T10:30:09;3.03;;;2.30;;
71639;SDS011;60912;48.968;10.124;2022-07-29T10:40:49;4.15;;;2.50;;
71639;SDS011;60912;48.968;10.124;2022-07-29T10:43:36;5.22;;;3.25;;
71639;SDS011;60912;48.968;10.124;2022-07-29T10:46:05;6.17;;;2.50;;
71639;SDS011;60912;48.968;10.124;2022-07-29T10:48:31;3.92;;;2.42;;
71639;SDS011;60912;48.968;10.124;2022-07-29T10:53:45;3.93;;;2.70;;
71639;SDS011;60912;48.968;10.124;2022-07-29T10:56:24;4.78;;;2.60;;
71639;SDS011;60912;48.968;10.124;2022-07-29T11:01:56;5.57;;;2.40;;
71639;SDS011;60912;48.968;10.124;2022-07-29T11:05:07;5.30;;;2.70;;
71639;SDS011;60912;48.968;10.124;2022-07-29T11:07:10;5.93;;;2.72;;
71639;SDS011;60912;48.968;10.124;2022-07-29T11:09:36;8.45;;;2.80;;
71639;SDS011;60912;48.968;10.124;2022-07-29T11:12:02;5.53;;;2.73;;
71639;SDS011;60912;48.968;10.124;2022-07-29T11:17:15;5.38;;;2.70;;
71639;SDS011;60912;48.968;10.124;2022-07-29T11:19:40;5.87;;;2.40;;
71639;SDS011;60912;48.968;10.124;2022-07-29T11:22:07;4.15;;;2.85;;
71639;SDS011;60912;48.968;10.124;2022-07-29T11:24:34;4.28;;;3.03;;
71639;SDS011;60912;48.968;10.124;2022-07-29T11:30:03;6.10;;;2.80;;
71639;SDS011;60912;48.968;10.124;2022-07-29T11:32:40;5.17;;;2.90;;
71639;SDS011;60912;48.968;10.124;2022-07-29T11:37:36;5.85;;;2.60;;
71639;SDS011;60912;48.968;10.124;2022-07-29T11:47:28;5.70;;;2.90;;
71639;SDS011;60912;48.968;10.124;2022-07-29T11:49:55;7.47;;;2.97;;
71639;SDS011;60912;48.968;10.124;2022-07-29T11:52:31;3.92;;;2.63;;
71639;SDS011;60912;48.968;10.124;2022-07-29T11:55:12;8.35;;;4.75;;
71639;SDS011;60912;48.968;10.124;2022-07-29T11:57:53;5.47;;;3.10;;
71639;SDS011;60912;48.968;10.124;2022-07-29T12:00:30;4.28;;;2.55;;
71639;SDS011;60912;48.968;10.124;2022-07-29T12:03:00;4.88;;;2.97;;
71639;SDS011;60912;48.968;10.124;2022-07-29T12:05:31;9.13;;;3.25;;
71639;SDS011;60912;48.968;10.124;2022-07-29T12:08:03;6.20;;;2.85;;
71639;SDS011;60912;48.968;10.124;2022-07-29T12:10:30;4.67;;;3.07;;
71639;SDS011;60912;48.968;10.124;2022-07-29T12:12:55;6.55;;;2.88;;
71639;SDS011;60912;48.968;10.124;2022-07-29T12:15:20;7.63;;;3.07;;
71639;SDS011;60912;48.968;10.124;2022-07-29T12:17:48;6.35;;;2.83;;
71639;SDS011;60912;48.968;10.124;2022-07-29T12:20:21;5.40;;;2.87;;
71639;SDS011;60912;48.968;10.124;2022-07-29T12:22:48;4.68;;;3.10;;
71639;SDS011;60912;48.968;10.124;2022-07-29T12:25:14;5.40;;;3.33;;
71639;SDS011;60912;48.968;10.124;2022-07-29T12:27:42;4.95;;;3.28;;
71639;SDS011;60912;48.968;10.124;2022-07-29T12:30:14;4.22;;;2.85;;
71639;SDS011;60912;48.968;10.124;2022-07-29T12:35:11;5.15;;;2.70;;
71639;SDS011;60912;48.968;10.124;2022-07-29T12:37:44;5.77;;;3.00;;
71639;SDS011;60912;48.968;10.124;2022-07-29T12:40:13;6.30;;;3.00;;
71639;SDS011;60912;48.968;10.124;2022-07-29T12:42:41;5.13;;;2.85;;
71639;SDS011;60912;48.968;10.124;2022-07-29T12:45:30;6.40;;;3.08;;
71639;SDS011;60912;48.968;10.124;2022-07-29T12:47:56;4.50;;;2.90;;
71639;SDS011;60912;48.968;10.124;2022-07-29T12:50:21;5.80;;;3.20;;
71639;SDS011;60912;48.968;10.124;2022-07-29T12:52:47;8.93;;;3.28;;
71639;SDS011;60912;48.968;10.124;2022-07-29T12:55:13;6.30;;;3.30;;
71639;SDS011;60912;48.968;10.124;2022-07-29T12:57:49;4.60;;;3.15;;
71639;SDS011;60912;48.968;10.124;2022-07-29T13:00:22;7.72;;;3.50;;
71639;SDS011;60912;48.968;10.124;2022-07-29T13:02:55;5.10;;;3.20;;
71639;SDS011;60912;48.968;10.124;2022-07-29T13:05:22;5.83;;;3.03;;
71639;SDS011;60912;48.968;10.124;2022-07-29T13:07:49;5.28;;;3.33;;
71639;SDS011;60912;48.968;10.124;2022-07-29T13:10:19;5.05;;;3.30;;
71639;SDS011;60912;48.968;10.124;2022-07-29T13:13:05;5.85;;;3.28;;
71639;SDS011;60912;48.968;10.124;2022-07-29T13:15:33;4.93;;;3.53;;
71639;SDS011;60912;48.968;10.124;2022-07-29T13:17:59;6.50;;;3.20;;
71639;SDS011;60912;48.968;10.124;2022-07-29T13:20:25;4.93;;;2.80;;
71639;SDS011;60912;48.968;10.124;2022-07-29T13:22:55;6.77;;;2.70;;
71639;SDS011;60912;48.968;10.124;2022-07-29T13:25:26;3.40;;;2.35;;
71639;SDS011;60912;48.968;10.124;2022-07-29T13:27:54;3.80;;;2.17;;
71639;SDS011;60912;48.968;10.124;2022-07-29T13:30:20;5.93;;;2.20;;
71639;SDS011;60912;48.968;10.124;2022-07-29T13:32:47;6.28;;;2.30;;
71639;SDS011;60912;48.968;10.124;2022-07-29T13:35:13;6.33;;;2.20;;
71639;SDS011;60912;48.968;10.124;2022-07-29T13:37:39;6.32;;;2.58;;
71639;SDS011;60912;48.968;10.124;2022-07-29T13:40:08;3.72;;;2.30;;
71639;SDS011;60912;48.968;10.124;2022-07-29T13:42:34;5.00;;;2.40;;
71639;SDS011;60912;48.968;10.124;2022-07-29T13:45:00;5.53;;;2.20;;
71639;SDS011;60912;48.968;10.124;2022-07-29T13:47:27;6.20;;;2.40;;
71639;SDS011;60912;48.968;10.124;2022-07-29T13:49:54;3.35;;;1.90;;
71639;SDS011;60912;48.968;10.124;2022-07-29T13:52:19;6.28;;;3.40;;
71639;SDS011;60912;48.968;10.124;2022-07-29T13:54:45;6.00;;;3.57;;
71639;SDS011;60912;48.968;10.124;2022-07-29T13:57:11;6.40;;;3.10;;
71639;SDS011;60912;48.968;10.124;2022-07-29T13:59:37;8.35;;;3.50;;
71639;SDS011;60912;48.968;10.124;2022-07-29T14:02:04;6.40;;;3.53;;
71639;SDS011;60912;48.968;10.124;2022-07-29T14:04:30;7.50;;;3.50;;
71639;SDS011;60912;48.968;10.124;2022-07-29T14:06:56;5.93;;;3.50;;
71639;SDS011;60912;48.968;10.124;2022-07-29T14:09:21;5.00;;;3.50;;
71639;SDS011;60912;48.968;10.124;2022-07-29T14:11:46;6.37;;;3.33;;
71639;SDS011;60912;48.968;10.124;2022-07-29T14:14:14;8.95;;;3.90;;
71639;SDS011;60912;48.968;10.124;2022-07-29T14:16:40;6.60;;;4.43;;
71639;SDS011;60912;48.968;10.124;2022-07-29T14:19:05;9.35;;;4.40;;
71639;SDS011;60912;48.968;10.124;2022-07-29T14:21:31;7.30;;;4.37;;
71639;SDS011;60912;48.968;10.124;2022-07-29T14:23:57;6.00;;;4.50;;
71639;SDS011;60912;48.968;10.124;2022-07-29T14:26:22;9.53;;;4.40;;
71639;SDS011;60912;48.968;10.124;2022-07-29T14:28:48;6.93;;;3.70;;
71639;SDS011;60912;48.968;10.124;2022-07-29T14:31:14;6.15;;;4.30;;
71639;SDS011;60912;48.968;10.124;2022-07-29T14:33:40;6.75;;;3.95;;
71639;SDS011;60912;48.968;10.124;2022-07-29T14:36:05;6.10;;;3.57;;
71639;SDS011;60912;48.968;10.124;2022-07-29T14:38:31;8.10;;;3.63;;
71639;SDS011;60912;48.968;10.124;2022-07-29T14:40:56;7.93;;;3.38;;
71639;SDS011;60912;48.968;10.124;2022-07-29T14:43:22;5.57;;;2.60;;
71639;SDS011;60912;48.968;10.124;2022-07-29T14:45:47;4.17;;;2.40;;
71639;SDS011;60912;48.968;10.124;2022-07-29T14:48:12;3.90;;;2.03;;
71639;SDS011;60912;48.968;10.124;2022-07-29T14:50:38;4.03;;;2.10;;
71639;SDS011;60912;48.968;10.124;2022-07-29T14:53:03;4.80;;;2.13;;
71639;SDS011;60912;48.968;10.124;2022-07-29T14:55:29;4.17;;;2.00;;
71639;SDS011;60912;48.968;10.124;2022-07-29T14:57:57;4.25;;;2.10;;
71639;SDS011;60912;48.968;10.124;2022-07-29T15:00:24;4.80;;;1.98;;
71639;SDS011;60912;48.968;10.124;2022-07-29T15:02:50;3.55;;;2.03;;
71639;SDS011;60912;48.968;10.124;2022-07-29T15:05:15;3.87;;;1.70;;
71639;SDS011;60912;48.968;10.124;2022-07-29T15:07:40;3.43;;;2.20;;
71639;SDS011;60912;48.968;10.124;2022-07-29T15:10:06;5.47;;;2.00;;
71639;SDS011;60912;48.968;10.124;2022-07-29T15:12:32;3.83;;;2.05;;
71639;SDS011;60912;48.968;10.124;2022-07-29T15:14:58;4.22;;;2.22;;
71639;SDS011;60912;48.968;10.124;2022-07-29T15:17:23;3.37;;;2.17;;
71639;SDS011;60912;48.968;10.124;2022-07-29T15:19:49;3.50;;;2.30;;
71639;SDS011;60912;48.968;10.124;2022-07-29T15:22:14;6.57;;;2.30;;
71639;SDS011;60912;48.968;10.124;2022-07-29T15:24:40;4.13;;;1.90;;